Time;durP1;ratioP1;P1;durP2;ratioP2;P2;SDS_P1;SDS_P2;PMS_P1;PMS_P2;Temp;Humidity;BMP_temperature;BMP_pressure;BME280_temperature;BME280_humidity;BME280_pressure;Samples;Min_cycle;Max_cycle;Signal;HPM_P1;HPM_P2
2023/09/11 00:00:12;;;;;;;6.70;3.90;;;;;;;15.77;83.63;101310.60;106490;1254;68786;-83
2023/09/11 00:02:40;;;;;;;5.50;3.30;;;;;;;15.75;83.63;101308.86;106433;1254;72727;-84
2023/09/11 00:05:08;;;;;;;6.10;3.10;;;;;;;15.78;83.11;101310.14;106263;1253;61844;-84
2023/09/11 00:07:36;;;;;;;5.10;2.90;;;;;;;15.79;82.53;101307.98;106493;1254;61288;-82
2023/09/11 00:10:04;;;;;;;4.90;2.80;;;;;;;15.72;82.03;101303.27;107106;1255;73398;-82
2023/09/11 00:12:32;;;;;;;7.10;3.10;;;;;;;15.63;82.21;101302.18;106484;1255;67065;-84
2023/09/11 00:15:00;;;;;;;7.60;4.00;;;;;;;15.61;81.83;101300.27;106382;1258;71136;-82
2023/09/11 00:17:29;;;;;;;8.50;3.40;;;;;;;15.65;81.60;101302.39;106376;1258;61720;-84
2023/09/11 00:19:57;;;;;;;6.30;3.40;;;;;;;15.66;81.94;101302.27;106321;1254;61581;-84
2023/09/11 00:22:24;;;;;;;7.50;3.50;;;;;;;15.72;81.58;101304.27;107010;1254;74655;-84
2023/09/11 00:24:52;;;;;;;6.20;3.50;;;;;;;15.61;82.30;101306.95;106364;1254;67441;-82
2023/09/11 00:27:20;;;;;;;6.10;3.20;;;;;;;15.56;82.57;101307.93;106036;1258;72754;-82
2023/09/11 00:29:48;;;;;;;5.10;3.20;;;;;;;15.63;82.13;101307.92;106459;1254;61258;-82
2023/09/11 00:32:16;;;;;;;5.30;3.20;;;;;;;15.63;82.09;101310.73;106476;1254;61597;-82
2023/09/11 00:34:44;;;;;;;6.60;3.70;;;;;;;15.62;82.42;101308.54;106591;1254;74725;-83
2023/09/11 00:37:11;;;;;;;6.30;3.30;;;;;;;15.34;84.68;101310.48;106789;1259;67227;-84
2023/09/11 00:39:39;;;;;;;5.40;3.00;;;;;;;15.20;86.11;101311.11;106430;1257;71426;-84
2023/09/11 00:42:07;;;;;;;6.70;3.90;;;;;;;15.25;85.59;101307.85;106346;1254;61458;-82
2023/09/11 00:44:35;;;;;;;6.90;3.10;;;;;;;15.15;86.10;101305.59;106290;1254;61247;-84
2023/09/11 00:47:02;;;;;;;7.20;3.00;;;;;;;15.21;85.95;101299.42;106913;1253;74663;-82
2023/09/11 00:49:30;;;;;;;5.40;3.60;;;;;;;15.38;84.70;101299.85;106272;1255;68317;-82
2023/09/11 00:51:58;;;;;;;4.40;2.50;;;;;;;15.41;83.97;101296.08;106371;1253;203883;-82
2023/09/11 00:54:25;;;;;;;5.60;3.30;;;;;;;15.31;83.91;101294.41;106134;1260;61674;-84
2023/09/11 00:56:53;;;;;;;4.40;3.00;;;;;;;15.23;83.82;101297.53;106317;1257;61114;-82
2023/09/11 00:59:21;;;;;;;4.30;3.30;;;;;;;15.18;83.12;101298.34;106998;1254;74571;-85
2023/09/11 01:01:49;;;;;;;5.00;3.20;;;;;;;15.09;82.96;101296.88;106491;1254;68864;-86
2023/09/11 01:04:17;;;;;;;4.80;2.90;;;;;;;15.01;83.15;101295.14;106322;1254;71081;-86
2023/09/11 01:06:45;;;;;;;6.00;3.60;;;;;;;15.02;83.09;101287.98;106304;1254;61859;-82
2023/09/11 01:09:13;;;;;;;5.20;3.40;;;;;;;15.11;82.36;101291.31;106362;1254;62944;-82
2023/09/11 01:11:41;;;;;;;5.90;3.40;;;;;;;14.95;83.32;101293.88;108220;1253;74676;-86
2023/09/11 01:14:09;;;;;;;6.30;4.00;;;;;;;14.93;83.83;101290.04;106239;1257;67422;-82
2023/09/11 01:16:55;;;;;;;6.60;3.40;;;;;;;14.95;83.98;101288.85;106348;1254;72971;-85
2023/09/11 01:19:33;;;;;;;5.60;3.40;;;;;;;14.83;85.37;101287.91;106181;1259;61266;-82
2023/09/11 01:22:18;;;;;;;5.40;3.20;;;;;;;14.77;85.94;101288.91;106302;1257;61089;-85
2023/09/11 01:25:12;;;;;;;5.90;3.50;;;;;;;14.75;86.13;101289.02;106749;1254;73361;-84
2023/09/11 01:27:54;;;;;;;5.60;3.30;;;;;;;14.68;85.74;101289.30;106778;1254;67196;-82
2023/09/11 01:30:22;;;;;;;5.90;3.30;;;;;;;14.68;85.68;101288.64;106150;1257;72990;-85
2023/09/11 01:32:49;;;;;;;8.40;3.40;;;;;;;14.72;85.63;101294.39;106208;1254;62143;-82
2023/09/11 01:35:17;;;;;;;6.30;3.60;;;;;;;14.74;85.89;101292.17;106190;1255;61348;-81
2023/09/11 01:37:45;;;;;;;5.80;3.30;;;;;;;14.85;85.57;101286.48;107048;1257;74725;-85
2023/09/11 01:40:13;;;;;;;6.40;3.40;;;;;;;14.89;85.50;101284.13;106456;1254;68290;-85
2023/09/11 01:42:46;;;;;;;6.40;3.60;;;;;;;14.97;85.06;101281.96;106323;1255;71715;-84
2023/09/11 01:45:15;;;;;;;7.20;3.10;;;;;;;15.08;84.26;101283.58;106433;1254;61300;-82
2023/09/11 01:47:45;;;;;;;6.20;3.30;;;;;;;15.15;83.38;101281.52;106165;1254;61308;-85
2023/09/11 01:50:17;;;;;;;5.00;3.30;;;;;;;15.14;83.34;101279.01;106615;1254;73448;-82
2023/09/11 01:52:46;;;;;;;6.00;3.60;;;;;;;15.13;83.19;101281.27;107010;1254;67505;-82
2023/09/11 01:55:14;;;;;;;6.10;3.80;;;;;;;15.09;83.37;101280.15;106471;1256;72725;-85
2023/09/11 01:57:42;;;;;;;5.20;3.40;;;;;;;15.03;83.58;101273.82;106383;1254;61038;-84
2023/09/11 02:00:11;;;;;;;7.00;3.90;;;;;;;15.16;82.81;101276.89;106345;1259;61509;-85
2023/09/11 02:02:40;;;;;;;8.00;4.20;;;;;;;15.09;83.02;101277.89;106964;1254;75015;-84
2023/09/11 02:05:09;;;;;;;5.40;3.70;;;;;;;15.13;82.75;101274.55;106260;1254;67293;-84
2023/09/11 02:07:37;;;;;;;7.50;3.30;;;;;;;15.11;83.01;101272.59;106342;1254;72668;-81
2023/09/11 02:10:05;;;;;;;6.50;3.60;;;;;;;15.04;83.32;101275.20;106317;1252;61714;-82
2023/09/11 02:12:33;;;;;;;5.30;3.20;;;;;;;15.08;83.27;101276.09;106443;1254;61387;-85
2023/09/11 02:15:01;;;;;;;7.20;3.10;;;;;;;15.08;83.15;101274.50;106272;1254;74672;-85
2023/09/11 02:17:28;;;;;;;6.80;3.80;;;;;;;15.16;82.29;101274.48;107190;1255;68780;-81
2023/09/11 02:19:57;;;;;;;5.60;3.50;;;;;;;14.98;82.21;101268.97;106293;1254;72653;-84
2023/09/11 02:22:24;;;;;;;6.00;3.60;;;;;;;15.02;81.68;101272.39;106377;1254;61768;-81
2023/09/11 02:24:52;;;;;;;5.80;3.40;;;;;;;15.05;81.24;101269.90;106326;1254;61276;-84
2023/09/11 02:27:20;;;;;;;6.20;3.40;;;;;;;14.83;82.54;101269.27;106268;1254;73465;-84
2023/09/11 02:29:48;;;;;;;5.00;3.40;;;;;;;14.83;81.96;101270.20;107153;1254;67128;-81
2023/09/11 02:32:16;;;;;;;5.60;3.30;;;;;;;14.91;81.23;101264.58;106555;1254;72875;-85
2023/09/11 02:34:43;;;;;;;5.80;3.80;;;;;;;14.92;81.02;101268.58;106399;1254;61132;-84
2023/09/11 02:37:11;;;;;;;5.40;3.60;;;;;;;14.96;80.92;101269.98;106471;1257;61271;-82
2023/09/11 02:39:39;;;;;;;5.60;3.40;;;;;;;15.01;80.45;101272.13;107777;1253;73524;-81
2023/09/11 02:42:07;;;;;;;7.50;3.30;;;;;;;14.93;80.51;101270.56;106465;1254;67577;-83
2023/09/11 02:44:35;;;;;;;6.60;3.50;;;;;;;14.73;81.65;101273.16;106355;1254;72715;-81
2023/09/11 02:47:05;;;;;;;6.00;3.10;;;;;;;14.76;81.22;101272.02;106382;1257;61308;-82
2023/09/11 02:49:32;;;;;;;5.60;3.50;;;;;;;14.84;80.36;101276.58;106476;1254;61102;-82
2023/09/11 02:52:00;;;;;;;5.80;3.40;;;;;;;14.74;80.85;101274.17;107005;1254;74651;-84
2023/09/11 02:54:28;;;;;;;6.40;3.70;;;;;;;14.70;81.18;101276.03;106382;1254;68696;-85
2023/09/11 02:56:56;;;;;;;7.60;3.80;;;;;;;14.88;79.82;101278.20;106241;1254;72764;-82
2023/09/11 02:59:24;;;;;;;5.20;3.30;;;;;;;14.85;79.24;101279.65;106432;1254;61912;-82
2023/09/11 03:01:52;;;;;;;6.80;3.70;;;;;;;14.78;79.53;101280.70;106377;1254;60095;-82
2023/09/11 03:04:19;;;;;;;6.50;3.70;;;;;;;14.80;79.68;101277.27;107307;1253;74669;-81
2023/09/11 03:06:47;;;;;;;5.50;3.30;;;;;;;14.66;80.69;101275.45;106307;1257;67454;-81
2023/09/11 03:09:18;;;;;;;6.90;3.90;;;;;;;14.62;81.00;101276.97;106264;1255;71458;-81
2023/09/11 03:11:48;;;;;;;5.10;3.10;;;;;;;14.66;81.28;101277.98;106363;1257;61336;-82
2023/09/11 03:14:17;;;;;;;7.30;3.70;;;;;;;14.65;81.13;101280.73;106600;1254;61237;-82
2023/09/11 03:16:45;;;;;;;5.70;3.50;;;;;;;14.68;81.29;101279.84;106167;1254;74705;-85
2023/09/11 03:19:12;;;;;;;4.80;3.30;;;;;;;14.78;80.12;101280.09;106322;1254;66610;-85
2023/09/11 03:21:40;;;;;;;6.80;3.50;;;;;;;14.75;79.83;101279.13;106435;1254;72305;-82
2023/09/11 03:24:08;;;;;;;7.50;3.90;;;;;;;14.72;79.93;101276.12;106335;1253;59949;-82
2023/09/11 03:26:36;;;;;;;5.70;3.50;;;;;;;14.66;80.53;101279.09;106412;1254;61397;-81
2023/09/11 03:29:04;;;;;;;5.50;3.80;;;;;;;14.63;80.86;101281.40;106880;1254;74694;-85
2023/09/11 03:31:32;;;;;;;5.70;3.30;;;;;;;14.56;81.31;101281.69;106412;1254;71116;-85
2023/09/11 03:34:00;;;;;;;5.20;3.00;;;;;;;14.55;81.63;101276.70;106346;1254;72649;-85
2023/09/11 03:36:28;;;;;;;6.10;3.70;;;;;;;14.54;81.85;101277.84;106271;1254;61289;-85
2023/09/11 03:38:56;;;;;;;5.30;3.30;;;;;;;14.59;81.64;101282.55;106457;1254;61161;-82
2023/09/11 03:41:24;;;;;;;5.80;3.60;;;;;;;14.53;82.08;101280.48;107563;1256;74659;-82
2023/09/11 03:43:52;;;;;;;5.90;3.60;;;;;;;14.58;82.11;101283.21;106332;1254;68746;-85
2023/09/11 03:46:20;;;;;;;8.20;3.80;;;;;;;14.62;81.98;101277.18;106409;1253;72677;-86
2023/09/11 03:48:48;;;;;;;5.80;3.50;;;;;;;14.66;82.06;101272.75;106287;1255;61361;-82
2023/09/11 03:51:16;;;;;;;7.10;3.50;;;;;;;14.66;81.92;101277.00;107111;1253;61275;-82
2023/09/11 03:53:45;;;;;;;5.90;3.80;;;;;;;14.70;81.26;101272.89;106350;1254;74649;-81
2023/09/11 03:56:16;;;;;;;6.30;3.10;;;;;;;14.66;80.92;101274.69;106346;1254;68867;-84
2023/09/11 03:58:44;;;;;;;6.20;3.70;;;;;;;14.82;79.64;101274.66;106303;1254;71478;-82
2023/09/11 04:01:12;;;;;;;4.90;3.40;;;;;;;14.84;79.14;101275.52;106405;1254;61220;-82
2023/09/11 04:03:41;;;;;;;5.10;3.30;;;;;;;14.78;79.73;101273.93;107347;1254;61141;-83
2023/09/11 04:06:09;;;;;;;6.30;4.20;;;;;;;14.77;80.32;101272.08;106353;1258;73386;-82
2023/09/11 04:08:37;;;;;;;6.40;3.70;;;;;;;14.89;80.58;101276.15;106220;1254;68617;-84
2023/09/11 04:11:05;;;;;;;10.90;4.30;;;;;;;14.99;81.45;101280.52;106312;1254;71899;-81
2023/09/11 04:13:33;;;;;;;7.00;3.80;;;;;;;15.15;81.70;101281.27;106292;1254;61684;-85
2023/09/11 04:16:01;;;;;;;5.80;4.00;;;;;;;15.28;82.05;101280.80;106357;1253;61164;-82
2023/09/11 04:18:29;;;;;;;6.80;4.00;;;;;;;15.34;83.30;101278.98;107233;1253;73450;-82
2023/09/11 04:21:02;;;;;;;15.80;4.50;;;;;;;15.42;84.27;101280.86;106215;1256;68599;-84
2023/09/11 04:23:30;;;;;;;;;;;;;;;15.50;85.28;101276.42;106613;1253;73157;-82
2023/09/11 04:25:57;;;;;;;6.50;4.00;;;;;;;15.59;86.22;101277.22;106299;1253;61682;-85
2023/09/11 04:28:25;;;;;;;7.70;3.40;;;;;;;15.82;85.98;101277.41;106879;1254;61214;-85
2023/09/11 04:30:53;;;;;;;6.90;4.00;;;;;;;15.93;86.47;101276.61;106461;1254;75074;-82
2023/09/11 04:33:21;;;;;;;7.20;4.10;;;;;;;16.00;87.79;101280.44;106220;1254;68018;-82
2023/09/11 04:35:49;;;;;;;6.70;4.20;;;;;;;16.32;86.98;101286.79;106204;1254;71446;-82
2023/09/11 04:38:16;;;;;;;6.40;4.10;;;;;;;16.54;86.75;101281.48;106338;1254;61330;-82
2023/09/11 04:40:44;;;;;;;6.90;4.30;;;;;;;16.74;87.03;101276.50;107095;1253;61280;-82
2023/09/11 04:43:12;;;;;;;7.40;4.40;;;;;;;16.79;88.06;101277.87;106228;1254;74732;-82
2023/09/11 04:45:40;;;;;;;8.30;4.10;;;;;;;16.83;89.55;101274.73;106272;1254;68358;-82
2023/09/11 04:48:08;;;;;;;7.50;4.30;;;;;;;16.99;90.21;101271.52;106341;1255;71486;-84
2023/09/11 04:50:36;;;;;;;6.60;4.10;;;;;;;17.22;90.20;101271.61;106316;1252;61300;-83
2023/09/11 04:53:04;;;;;;;6.20;4.10;;;;;;;17.46;90.05;101268.29;106485;1259;61116;-85
2023/09/11 04:55:32;;;;;;;8.70;5.50;;;;;;;17.76;89.45;101266.42;107449;1252;74929;-85
2023/09/11 04:58:00;;;;;;;9.00;4.60;;;;;;;18.07;88.62;101266.41;106624;1253;68591;-86
2023/09/11 05:00:29;;;;;;;7.70;4.10;;;;;;;18.14;89.56;101259.38;107018;1253;72635;-83
2023/09/11 05:02:57;;;;;;;7.10;4.40;;;;;;;18.24;90.58;101255.95;106251;1253;61243;-83
2023/09/11 05:05:25;;;;;;;7.10;4.10;;;;;;;18.37;91.26;101247.67;106345;1252;61428;-85
2023/09/11 05:07:53;;;;;;;6.00;3.90;;;;;;;18.53;91.66;101250.30;107431;1257;73367;-85
2023/09/11 05:10:21;;;;;;;9.50;5.20;;;;;;;18.62;92.50;101246.92;106345;1254;68522;-84
2023/09/11 05:12:52;;;;;;;9.30;5.00;;;;;;;18.83;92.28;101244.48;106208;1255;71743;-86
2023/09/11 05:15:20;;;;;;;8.30;4.90;;;;;;;19.01;92.15;101244.75;106236;1255;61206;-83
2023/09/11 05:17:49;;;;;;;10.90;4.90;;;;;;;19.30;91.63;101245.53;106953;1253;61154;-84
2023/09/11 05:20:16;;;;;;;7.30;4.80;;;;;;;19.47;91.59;101243.39;106417;1254;73471;-85
2023/09/11 05:22:44;;;;;;;11.60;5.80;;;;;;;19.65;91.33;101248.33;106562;1253;67273;-84
2023/09/11 05:25:12;;;;;;;12.30;5.80;;;;;;;19.89;90.48;101246.02;106635;1253;72823;-84
2023/09/11 05:27:40;;;;;;;13.30;6.00;;;;;;;20.17;90.22;101246.08;106592;1257;61852;-86
2023/09/11 05:30:08;;;;;;;15.20;8.00;;;;;;;20.43;89.46;101247.71;106441;1252;61364;-85
2023/09/11 05:32:35;;;;;;;15.10;8.50;;;;;;;20.62;89.58;101245.02;107599;1252;73450;-85
2023/09/11 05:35:04;;;;;;;16.60;8.00;;;;;;;20.79;90.43;101247.94;106647;1253;67964;-84
2023/09/11 05:37:32;;;;;;;12.60;7.20;;;;;;;20.92;91.37;101247.71;106389;1253;72661;-85
2023/09/11 05:40:00;;;;;;;11.80;7.50;;;;;;;21.00;92.26;101247.60;106404;1257;61326;-84
2023/09/11 05:42:28;;;;;;;15.30;8.30;;;;;;;21.11;92.96;101246.39;106459;1253;61252;-84
2023/09/11 05:44:56;;;;;;;15.80;8.40;;;;;;;21.46;92.30;101250.29;106463;1255;73449;-85
2023/09/11 05:47:24;;;;;;;19.50;9.90;;;;;;;21.72;91.73;101240.30;106846;1253;68722;-84
2023/09/11 05:49:51;;;;;;;20.90;8.70;;;;;;;21.99;90.99;101247.13;106388;1253;73154;-84
2023/09/11 05:52:19;;;;;;;15.60;9.40;;;;;;;22.08;91.23;101247.19;106409;1253;61215;-86
2023/09/11 05:54:47;;;;;;;15.90;9.50;;;;;;;22.44;90.02;101244.67;106483;1253;61477;-85
2023/09/11 05:57:15;;;;;;;17.00;8.40;;;;;;;22.75;89.00;101248.58;106637;1254;76916;-85
2023/09/11 05:59:43;;;;;;;15.60;8.30;;;;;;;23.05;87.16;101245.21;106874;1258;69619;-85
2023/09/11 06:02:10;;;;;;;18.40;8.30;;;;;;;23.27;85.08;101245.69;106790;1253;75100;-83
2023/09/11 06:04:38;;;;;;;15.90;8.60;;;;;;;23.43;83.20;101246.37;106934;1253;61246;-83
2023/09/11 06:07:06;;;;;;;14.90;8.50;;;;;;;23.55;81.81;101246.74;106460;1257;59392;-83
2023/09/11 06:09:34;;;;;;;13.90;7.30;;;;;;;23.68;80.79;101247.01;106442;1253;74754;-82
2023/09/11 06:12:01;;;;;;;14.80;7.20;;;;;;;23.80;79.54;101245.84;106980;1253;68384;-82
2023/09/11 06:14:29;;;;;;;12.40;7.40;;;;;;;24.06;77.48;101249.44;106308;1254;72461;-83
2023/09/11 06:16:57;;;;;;;12.90;7.70;;;;;;;24.36;75.43;101253.54;106632;1253;61365;-83
2023/09/11 06:19:25;;;;;;;14.80;8.70;;;;;;;24.68;73.36;101253.59;106373;1253;61314;-82
2023/09/11 06:21:54;;;;;;;15.80;8.10;;;;;;;24.92;70.68;101255.55;106382;1253;73747;-83
2023/09/11 06:24:26;;;;;;;13.10;7.40;;;;;;;25.13;67.78;101259.46;107099;1253;67602;-82
2023/09/11 06:27:06;;;;;;;10.60;6.80;;;;;;;25.27;66.20;101261.84;106448;1254;72347;-83
2023/09/11 06:29:34;;;;;;;11.10;7.20;;;;;;;25.52;62.35;101260.48;106045;1258;61315;-82
2023/09/11 06:32:02;;;;;;;13.10;7.40;;;;;;;25.72;60.98;101258.73;106847;1257;61237;-83
2023/09/11 06:34:30;;;;;;;12.60;6.60;;;;;;;25.96;59.84;101260.67;106305;1253;65845;-81
2023/09/11 06:36:58;;;;;;;11.60;6.30;;;;;;;26.11;57.47;101264.52;107094;1256;59693;-82
2023/09/11 06:39:26;;;;;;;12.00;5.80;;;;;;;26.21;56.62;101259.24;106441;1254;63950;-82
2023/09/11 06:41:54;;;;;;;13.60;6.70;;;;;;;26.39;55.32;101257.70;106385;1254;61317;-83
2023/09/11 06:44:22;;;;;;;14.40;6.60;;;;;;;26.59;53.46;101256.92;106477;1253;61279;-82
2023/09/11 06:46:50;;;;;;;10.50;5.80;;;;;;;26.67;51.92;101254.52;106493;1254;66029;-82
2023/09/11 06:49:19;;;;;;;9.80;5.50;;;;;;;26.81;51.76;101255.05;107739;1254;60914;-82
2023/09/11 06:51:46;;;;;;;12.30;6.10;;;;;;;26.96;51.87;101253.08;106492;1254;63772;-82
2023/09/11 06:54:14;;;;;;;13.20;6.20;;;;;;;27.15;51.19;101247.59;106442;1256;61209;-81
2023/09/11 06:56:42;;;;;;;10.60;5.60;;;;;;;27.43;49.77;101247.11;106427;1254;60043;-82
2023/09/11 06:59:10;;;;;;;10.80;5.90;;;;;;;27.68;48.66;101251.30;106435;1253;65718;-82
2023/09/11 07:01:40;;;;;;;12.70;6.10;;;;;;;27.78;47.51;101243.84;107405;1256;61012;-83
2023/09/11 07:04:10;;;;;;;10.10;5.50;;;;;;;27.96;46.02;101242.75;106555;1257;62563;-82
2023/09/11 07:06:39;;;;;;;13.10;5.80;;;;;;;28.16;45.16;101246.48;106576;1254;61339;-82
2023/09/11 07:09:07;;;;;;;10.60;6.10;;;;;;;28.28;44.52;101248.16;106545;1253;62080;-83
2023/09/11 07:11:35;;;;;;;15.20;6.10;;;;;;;28.27;43.91;101245.66;106458;1254;64422;-83
2023/09/11 07:14:05;;;;;;;11.90;6.50;;;;;;;28.29;44.34;101243.45;107335;1253;61068;-82
2023/09/11 07:16:33;;;;;;;14.60;7.30;;;;;;;28.42;45.01;101244.34;106525;1254;63837;-83
2023/09/11 07:19:00;;;;;;;15.10;7.20;;;;;;;28.56;44.77;101243.55;106522;1257;61314;-82
2023/09/11 07:21:29;;;;;;;10.40;6.10;;;;;;;28.68;44.33;101243.95;106505;1253;61350;-83
2023/09/11 07:23:56;;;;;;;13.80;6.70;;;;;;;28.79;44.01;101241.51;106452;1253;66626;-83
2023/09/11 07:26:24;;;;;;;14.70;6.90;;;;;;;28.82;43.52;101243.14;107675;1253;61314;-84
2023/09/11 07:29:01;;;;;;;10.90;5.60;;;;;;;28.91;42.76;101245.48;106497;1253;64306;-82
2023/09/11 07:31:30;;;;;;;11.50;6.50;;;;;;;29.01;42.01;101244.70;106406;1254;61386;-82
2023/09/11 07:33:58;;;;;;;9.60;6.30;;;;;;;28.96;40.87;101244.95;106522;1253;61129;-82
2023/09/11 07:36:26;;;;;;;12.00;5.90;;;;;;;28.88;40.85;101242.88;106441;1253;65860;-82
2023/09/11 07:38:54;;;;;;;11.10;5.90;;;;;;;28.82;40.86;101242.17;107342;1253;69777;-83
2023/09/11 07:41:22;;;;;;;10.40;6.00;;;;;;;28.80;40.95;101243.27;106374;1259;62687;-82
2023/09/11 07:43:50;;;;;;;10.60;5.80;;;;;;;28.70;40.98;101240.36;106412;1257;61206;-83
2023/09/11 07:46:21;;;;;;;10.50;5.30;;;;;;;28.71;40.87;101239.80;106381;1254;61184;-83
2023/09/11 07:48:49;;;;;;;11.00;6.00;;;;;;;28.89;40.89;101240.48;106568;1253;64530;-83
2023/09/11 07:51:17;;;;;;;10.40;5.50;;;;;;;28.93;41.10;101235.86;107232;1252;61332;-81
2023/09/11 07:53:45;;;;;;;9.20;5.60;;;;;;;28.93;40.94;101234.33;106423;1253;62933;-82
2023/09/11 07:56:13;;;;;;;8.30;5.50;;;;;;;29.03;40.78;101233.39;106461;1254;61346;-81
2023/09/11 07:58:41;;;;;;;9.30;5.80;;;;;;;29.17;40.08;101233.30;106560;1254;61353;-82
2023/09/11 08:01:09;;;;;;;9.10;5.30;;;;;;;29.21;39.98;101232.92;106591;1253;66229;-83
2023/09/11 08:03:37;;;;;;;11.10;5.60;;;;;;;29.29;39.51;101231.71;107455;1257;61270;-83
2023/09/11 08:06:06;;;;;;;8.30;5.50;;;;;;;29.45;39.45;101228.32;106313;1253;64226;-83
2023/09/11 08:08:33;;;;;;;12.60;6.40;;;;;;;29.56;39.16;101227.60;106311;1253;61314;-83
2023/09/11 08:11:12;;;;;;;8.20;5.00;;;;;;;29.65;38.79;101225.58;106593;1253;61304;-83
2023/09/11 08:13:40;;;;;;;10.50;5.10;;;;;;;29.88;38.92;101222.28;106575;1254;64617;-83
2023/09/11 08:16:09;;;;;;;9.80;5.10;;;;;;;30.03;38.84;101221.88;107670;1253;63606;-82
2023/09/11 08:18:37;;;;;;;10.90;5.10;;;;;;;30.25;38.24;101216.92;106478;1253;63764;-82
2023/09/11 08:21:05;;;;;;;6.80;4.10;;;;;;;30.30;37.26;101220.34;106379;1253;61326;-82
2023/09/11 08:23:33;;;;;;;6.00;4.30;;;;;;;30.34;36.46;101217.94;106418;1252;61224;-83
2023/09/11 08:26:04;;;;;;;6.00;4.40;;;;;;;30.45;35.73;101212.75;106799;1258;68030;-83
2023/09/11 08:28:32;;;;;;;8.40;4.20;;;;;;;30.32;35.14;101211.83;106507;1253;61250;-83
2023/09/11 08:30:59;;;;;;;5.90;3.60;;;;;;;30.21;35.02;101209.81;106581;1254;63878;-83
2023/09/11 08:33:27;;;;;;;5.90;3.90;;;;;;;30.13;35.56;101207.42;106638;1253;60488;-83
2023/09/11 08:36:15;;;;;;;6.30;4.20;;;;;;;30.24;35.18;101207.42;106457;1253;61259;-85
2023/09/11 08:38:44;;;;;;;8.30;3.80;;;;;;;30.26;34.81;101208.96;107948;1257;65741;-85
2023/09/11 08:41:13;;;;;;;6.00;3.40;;;;;;;30.23;34.68;101204.91;106303;1253;61860;-83
2023/09/11 08:43:42;;;;;;;4.40;3.30;;;;;;;30.15;33.77;101204.23;106580;1253;62420;-85
2023/09/11 08:46:11;;;;;;;5.90;3.30;;;;;;;29.97;33.93;101202.29;106338;1258;61210;-85
2023/09/11 08:48:41;;;;;;;6.40;3.70;;;;;;;29.80;34.27;101200.59;106616;1252;61828;-85
2023/09/11 08:51:12;;;;;;;5.40;3.60;;;;;;;29.70;34.87;101201.16;107272;1253;65922;-83
2023/09/11 08:53:40;;;;;;;5.70;3.70;;;;;;;29.74;35.00;101197.64;106857;1257;61205;-89
2023/09/11 08:56:08;;;;;;;6.20;3.40;;;;;;;29.87;34.78;101191.45;106316;1257;63887;-88
2023/09/11 08:58:36;;;;;;;4.00;3.00;;;;;;;30.01;34.84;101190.70;106695;1254;61298;-89
2023/09/11 09:01:04;;;;;;;4.20;3.00;;;;;;;30.29;34.41;101189.64;106674;1254;61115;-84
2023/09/11 09:03:31;;;;;;;7.60;3.70;;;;;;;30.40;33.40;101184.70;107049;1253;64551;-85
2023/09/11 09:06:00;;;;;;;4.40;3.10;;;;;;;30.42;32.82;101182.85;106359;1253;61500;-84
2023/09/11 09:08:27;;;;;;;4.10;3.30;;;;;;;30.46;32.73;101177.14;106348;1254;62546;-84
2023/09/11 09:10:55;;;;;;;4.60;3.20;;;;;;;30.44;32.63;101171.66;106309;1257;61214;-85
2023/09/11 09:13:23;;;;;;;4.20;3.00;;;;;;;30.51;32.77;101165.23;106466;1257;59968;-85
2023/09/11 09:15:51;;;;;;;4.30;3.30;;;;;;;30.56;32.39;101159.12;106821;1253;65846;-85
2023/09/11 09:18:19;;;;;;;6.50;3.50;;;;;;;30.51;32.27;101164.02;106391;1257;61274;-85
2023/09/11 09:20:47;;;;;;;3.90;3.00;;;;;;;30.38;32.77;101155.85;106245;1253;63710;-85
2023/09/11 09:23:15;;;;;;;5.60;3.40;;;;;;;30.38;33.07;101157.14;106444;1253;61726;-85
2023/09/11 09:25:43;;;;;;;4.30;3.10;;;;;;;30.45;32.97;101160.39;106059;1253;61445;-85
2023/09/11 09:28:10;;;;;;;3.90;3.30;;;;;;;30.43;32.67;101159.58;106933;1253;69378;-85
2023/09/11 09:30:38;;;;;;;5.60;3.50;;;;;;;30.33;32.79;101157.14;106389;1253;61903;-85
2023/09/11 09:33:06;;;;;;;4.80;3.10;;;;;;;30.23;33.22;101156.69;106694;1255;64323;-84
2023/09/11 09:35:34;;;;;;;4.40;3.30;;;;;;;30.15;33.53;101154.06;106247;1253;61208;-85
2023/09/11 09:38:02;;;;;;;3.80;3.00;;;;;;;30.29;32.81;101151.80;106799;1252;61326;-85
2023/09/11 09:40:34;;;;;;;5.30;3.10;;;;;;;30.25;33.51;101151.30;106479;1253;64497;-84
2023/09/11 09:43:08;;;;;;;7.20;3.70;;;;;;;30.19;33.62;101148.04;106690;1254;61150;-84
2023/09/11 09:45:38;;;;;;;4.80;3.20;;;;;;;29.97;33.82;101146.89;106296;1255;66962;-85
2023/09/11 09:48:11;;;;;;;6.50;4.00;;;;;;;29.91;34.07;101145.59;106276;1254;61283;-85
2023/09/11 09:50:48;;;;;;;;;;;;;;;30.05;34.06;101145.16;106854;1253;61330;-84
2023/09/11 09:53:30;;;;;;;5.20;3.80;;;;;;;30.25;33.55;101139.54;106342;1257;65766;-84
2023/09/11 09:56:04;;;;;;;4.50;3.20;;;;;;;30.30;33.61;101141.17;106429;1253;61388;-85
2023/09/11 09:58:37;;;;;;;6.60;3.50;;;;;;;30.36;33.60;101137.80;106566;1253;67417;-85
2023/09/11 10:01:06;;;;;;;9.00;3.10;;;;;;;30.39;33.31;101139.02;107111;1253;61333;-85
2023/09/11 10:03:45;;;;;;;4.60;3.50;;;;;;;30.40;33.31;101134.52;106377;1254;61336;-85
2023/09/11 10:06:16;;;;;;;4.40;3.60;;;;;;;30.34;33.52;101134.99;106513;1252;64425;-85
2023/09/11 10:08:44;;;;;;;6.10;3.30;;;;;;;30.35;33.69;101137.24;106430;1253;62112;-85
2023/09/11 10:11:28;;;;;;;4.80;3.30;;;;;;;30.35;33.57;101134.02;106446;1254;62448;-83
2023/09/11 10:13:57;;;;;;;3.60;3.00;;;;;;;30.34;33.24;101132.09;107161;1254;61257;-83
2023/09/11 10:16:25;;;;;;;4.10;3.10;;;;;;;30.38;33.31;101126.53;106369;1256;61358;-83
2023/09/11 10:18:55;;;;;;;4.10;3.00;;;;;;;30.61;32.93;101127.88;106506;1257;67702;-83
2023/09/11 10:21:24;;;;;;;4.00;3.00;;;;;;;30.77;32.75;101124.99;106368;1253;63663;-83
2023/09/11 10:23:52;;;;;;;4.40;3.00;;;;;;;30.88;32.59;101123.15;106437;1254;62489;-82
2023/09/11 10:26:26;;;;;;;3.50;2.70;;;;;;;30.97;31.98;101118.98;107074;1253;61258;-84
2023/09/11 10:28:55;;;;;;;5.50;3.50;;;;;;;31.00;31.86;101113.64;106575;1258;61185;-83
2023/09/11 10:31:24;;;;;;;5.60;3.00;;;;;;;31.00;32.29;101113.24;106457;1253;67806;-83
2023/09/11 10:33:57;;;;;;;4.40;3.00;;;;;;;30.98;31.88;101112.19;106316;1257;63247;-83
2023/09/11 10:36:27;;;;;;;7.20;3.40;;;;;;;31.08;32.09;101110.57;106333;1254;65977;-83
2023/09/11 10:38:56;;;;;;;5.30;3.50;;;;;;;31.26;32.03;101109.59;107871;1257;61209;-83
2023/09/11 10:41:24;;;;;;;5.50;3.20;;;;;;;31.41;31.27;101100.61;106403;1254;61331;-83
2023/09/11 10:43:52;;;;;;;4.80;3.50;;;;;;;31.39;31.57;101099.02;106497;1254;67451;-84
2023/09/11 10:46:19;;;;;;;4.50;3.30;;;;;;;31.42;31.68;101094.89;106247;1254;61714;-85
2023/09/11 10:48:48;;;;;;;7.20;3.30;;;;;;;31.42;31.62;101093.52;106320;1257;65968;-84
2023/09/11 10:51:16;;;;;;;6.00;3.50;;;;;;;31.40;31.64;101091.35;107121;1254;61340;-84
2023/09/11 10:53:47;;;;;;;5.30;3.30;;;;;;;31.29;31.66;101092.56;106218;1254;61330;-84
2023/09/11 10:56:15;;;;;;;5.80;3.80;;;;;;;31.27;31.64;101088.54;106211;1258;65721;-84
2023/09/11 10:58:43;;;;;;;7.50;3.80;;;;;;;31.28;31.61;101084.58;106402;1253;61733;-84
2023/09/11 11:01:13;;;;;;;4.90;3.50;;;;;;;31.39;31.38;101078.36;106320;1254;63738;-84
2023/09/11 11:03:41;;;;;;;6.20;3.20;;;;;;;31.38;31.24;101078.45;106919;1257;61260;-84
2023/09/11 11:06:12;;;;;;;4.80;3.20;;;;;;;31.44;31.18;101078.92;106593;1253;61177;-84
2023/09/11 11:08:41;;;;;;;4.50;3.10;;;;;;;31.40;31.31;101074.73;106635;1256;67697;-84
2023/09/11 11:11:21;;;;;;;5.10;3.50;;;;;;;31.44;30.91;101073.02;106580;1258;61907;-84
2023/09/11 11:14:11;;;;;;;5.00;3.30;;;;;;;31.40;30.54;101071.75;106319;1257;62440;-84
2023/09/11 11:16:39;;;;;;;5.30;3.60;;;;;;;31.25;30.80;101070.79;107014;1253;61239;-83
2023/09/11 11:19:07;;;;;;;5.20;3.40;;;;;;;31.21;31.02;101065.06;106342;1253;59534;-83
2023/09/11 11:21:39;;;;;;;4.40;3.40;;;;;;;31.33;31.25;101067.80;106470;1256;64464;-84
2023/09/11 11:24:08;;;;;;;6.60;3.50;;;;;;;31.50;30.81;101066.72;106382;1254;59985;-83